Aérodrome :
LOGIN :

S'inscrire | Disclaimer

   EN    FR    IT 

 










Légende :    VFR   VFR Marginal   IFR   IFR Intensif   IFR Très Intensif
Visi : 
Plafond : 
>= 8 km
>= 3000ft
5 à 8 km
1000 à 3000 ft
1500m à 5 km
500 à 1000 ft
800 à 1500m
200 à 500 ft
< 800m
< 200 ft
Symboles :   Orages  Brouillard  Fortes neiges  Fortes précipitations  Vent > 20 kt
SIGMETs :   Divers  Orages  Givrage  Turbulence  Onde Orograph.  Cendres Volcan.






- Altitude de l'aérodrome : 5600 ft
- Code IATA : SMV


LSZS - Samedan

DERNIER METAR :
  • 221120Z VRB01KT CAVOK 14/06 Q1027 RMK L

METARs EXPIRÉS :
  • 221050Z VRB02KT CAVOK 12/07 Q1028 RMK K
  • 221020Z VRB01KT CAVOK 10/06 Q1028 RMK J
  • 220950Z VRB01KT CAVOK 08/06 Q1028 RMK I
  • 220920Z VRB01KT CAVOK 07/06 Q1028 RMK H
  • 220850Z VRB01KT CAVOK 06/06 Q1028 RMK G

TAF TAF LSZS
Valide du 22 à 09h jusqu'au 22 à 18h UTC


220825Z 2209/2218 VRB02KT 9999 VCFG NSC TX15/2213Z
BECMG 2210/2213 21010KT
ATIS : +41 81 834 93 24



MET'MAP, la Météo Aéronautique d'un coup d'oeil ! - Copyright ORBIFLY Décembre 2007 - Disclaimer

ORBIFLY MET'MAP TEAM :

Programmation & Développement : Alexandra Zaïnal
Conception & Développement : Baudouin d'Aumeries
Co-Programmation & Développement : Marc-Olivier Méhu
Soutien technique & logistique : Manuel Goepfert

Contact : metmap@orbifly.com




SOURCES & CREDITS :

   NOAA